sensor_id;sensor_type;location;lat;lon;timestamp;P1;durP1;ratioP1;P2;durP2;ratioP2
49828;SDS011;35723;51.194;5.112;2022-09-09T00:00:38;11.05;;;4.55;;
49828;SDS011;35723;51.194;5.112;2022-09-09T00:03:22;12.05;;;4.82;;
49828;SDS011;35723;51.194;5.112;2022-09-09T00:17:01;8.68;;;3.80;;
49828;SDS011;35723;51.194;5.112;2022-09-09T00:19:50;7.60;;;3.85;;
49828;SDS011;35723;51.194;5.112;2022-09-09T00:22:34;11.77;;;4.03;;
49828;SDS011;35723;51.194;5.112;2022-09-09T00:25:19;9.63;;;3.55;;
49828;SDS011;35723;51.194;5.112;2022-09-09T00:27:54;11.65;;;3.60;;
49828;SDS011;35723;51.194;5.112;2022-09-09T00:30:22;7.88;;;3.20;;
49828;SDS011;35723;51.194;5.112;2022-09-09T00:32:53;9.68;;;3.50;;
49828;SDS011;35723;51.194;5.112;2022-09-09T00:35:41;11.95;;;3.45;;
49828;SDS011;35723;51.194;5.112;2022-09-09T00:38:20;11.38;;;3.30;;
49828;SDS011;35723;51.194;5.112;2022-09-09T00:58:16;9.95;;;3.13;;
49828;SDS011;35723;51.194;5.112;2022-09-09T01:00:43;12.15;;;3.35;;
49828;SDS011;35723;51.194;5.112;2022-09-09T01:03:22;9.30;;;3.38;;
49828;SDS011;35723;51.194;5.112;2022-09-09T01:08:58;9.15;;;3.13;;
49828;SDS011;35723;51.194;5.112;2022-09-09T01:14:35;10.57;;;3.30;;
49828;SDS011;35723;51.194;5.112;2022-09-09T01:17:20;9.65;;;3.42;;
49828;SDS011;35723;51.194;5.112;2022-09-09T01:28:45;11.55;;;3.67;;
49828;SDS011;35723;51.194;5.112;2022-09-09T01:31:18;16.60;;;3.23;;
49828;SDS011;35723;51.194;5.112;2022-09-09T01:33:47;12.80;;;3.22;;
49828;SDS011;35723;51.194;5.112;2022-09-09T01:36:15;11.15;;;3.28;;
49828;SDS011;35723;51.194;5.112;2022-09-09T01:39:03;8.60;;;3.40;;
49828;SDS011;35723;51.194;5.112;2022-09-09T01:41:29;11.25;;;3.13;;
49828;SDS011;35723;51.194;5.112;2022-09-09T01:43:55;12.10;;;3.17;;
49828;SDS011;35723;51.194;5.112;2022-09-09T01:46:21;10.27;;;3.10;;
49828;SDS011;35723;51.194;5.112;2022-09-09T01:48:48;15.82;;;3.83;;
49828;SDS011;35723;51.194;5.112;2022-09-09T01:51:16;15.55;;;3.00;;
49828;SDS011;35723;51.194;5.112;2022-09-09T01:53:42;10.82;;;2.90;;
49828;SDS011;35723;51.194;5.112;2022-09-09T02:06:49;15.02;;;3.55;;
49828;SDS011;35723;51.194;5.112;2022-09-09T02:09:22;12.50;;;3.88;;
49828;SDS011;35723;51.194;5.112;2022-09-09T02:11:49;12.32;;;3.85;;
49828;SDS011;35723;51.194;5.112;2022-09-09T02:14:27;14.45;;;4.10;;
49828;SDS011;35723;51.194;5.112;2022-09-09T02:17:02;13.63;;;4.00;;
49828;SDS011;35723;51.194;5.112;2022-09-09T02:19:35;14.48;;;4.10;;
49828;SDS011;35723;51.194;5.112;2022-09-09T02:22:07;14.48;;;4.03;;
49828;SDS011;35723;51.194;5.112;2022-09-09T02:24:35;17.00;;;4.18;;
49828;SDS011;35723;51.194;5.112;2022-09-09T02:27:03;10.15;;;3.35;;
49828;SDS011;35723;51.194;5.112;2022-09-09T02:29:34;10.10;;;3.67;;
49828;SDS011;35723;51.194;5.112;2022-09-09T02:32:14;14.15;;;3.75;;
49828;SDS011;35723;51.194;5.112;2022-09-09T02:34:45;15.00;;;3.85;;
49828;SDS011;35723;51.194;5.112;2022-09-09T02:37:15;14.38;;;3.65;;
49828;SDS011;35723;51.194;5.112;2022-09-09T02:39:44;13.43;;;3.70;;
49828;SDS011;35723;51.194;5.112;2022-09-09T02:42:11;12.73;;;3.53;;
49828;SDS011;35723;51.194;5.112;2022-09-09T02:44:39;11.63;;;3.63;;
49828;SDS011;35723;51.194;5.112;2022-09-09T02:58:03;14.15;;;4.10;;
49828;SDS011;35723;51.194;5.112;2022-09-09T03:00:32;14.02;;;3.40;;
49828;SDS011;35723;51.194;5.112;2022-09-09T03:02:57;16.33;;;3.75;;
49828;SDS011;35723;51.194;5.112;2022-09-09T03:05:23;16.30;;;3.70;;
49828;SDS011;35723;51.194;5.112;2022-09-09T03:07:49;12.30;;;3.33;;
49828;SDS011;35723;51.194;5.112;2022-09-09T03:10:15;10.68;;;3.40;;
49828;SDS011;35723;51.194;5.112;2022-09-09T03:12:42;18.73;;;4.10;;
49828;SDS011;35723;51.194;5.112;2022-09-09T03:15:08;10.20;;;3.42;;
49828;SDS011;35723;51.194;5.112;2022-09-09T03:17:34;15.98;;;3.95;;
49828;SDS011;35723;51.194;5.112;2022-09-09T03:20:02;15.90;;;4.18;;
49828;SDS011;35723;51.194;5.112;2022-09-09T03:22:28;14.57;;;3.92;;
49828;SDS011;35723;51.194;5.112;2022-09-09T03:24:54;15.27;;;4.13;;
49828;SDS011;35723;51.194;5.112;2022-09-09T03:27:20;15.80;;;4.50;;
49828;SDS011;35723;51.194;5.112;2022-09-09T03:29:46;16.58;;;5.15;;
49828;SDS011;35723;51.194;5.112;2022-09-09T03:32:12;17.73;;;5.25;;
49828;SDS011;35723;51.194;5.112;2022-09-09T03:34:38;15.20;;;4.90;;
49828;SDS011;35723;51.194;5.112;2022-09-09T03:37:07;14.88;;;5.30;;
49828;SDS011;35723;51.194;5.112;2022-09-09T03:39:32;16.02;;;5.18;;
49828;SDS011;35723;51.194;5.112;2022-09-09T03:41:58;17.50;;;5.03;;
49828;SDS011;35723;51.194;5.112;2022-09-09T03:44:24;17.48;;;4.70;;
49828;SDS011;35723;51.194;5.112;2022-09-09T03:46:49;15.63;;;4.70;;
49828;SDS011;35723;51.194;5.112;2022-09-09T03:49:15;15.55;;;4.30;;
49828;SDS011;35723;51.194;5.112;2022-09-09T03:51:41;12.20;;;3.63;;
49828;SDS011;35723;51.194;5.112;2022-09-09T03:54:07;14.35;;;3.60;;
49828;SDS011;35723;51.194;5.112;2022-09-09T03:56:35;15.32;;;3.58;;
49828;SDS011;35723;51.194;5.112;2022-09-09T03:59:01;12.68;;;3.50;;
49828;SDS011;35723;51.194;5.112;2022-09-09T04:01:27;15.40;;;3.70;;
49828;SDS011;35723;51.194;5.112;2022-09-09T04:03:53;16.05;;;4.15;;
49828;SDS011;35723;51.194;5.112;2022-09-09T04:06:23;18.77;;;3.42;;
49828;SDS011;35723;51.194;5.112;2022-09-09T04:08:49;16.95;;;3.45;;
49828;SDS011;35723;51.194;5.112;2022-09-09T04:11:17;14.10;;;3.50;;
49828;SDS011;35723;51.194;5.112;2022-09-09T04:13:42;16.02;;;3.38;;
49828;SDS011;35723;51.194;5.112;2022-09-09T04:16:09;12.00;;;3.63;;
49828;SDS011;35723;51.194;5.112;2022-09-09T04:18:36;15.30;;;3.33;;
49828;SDS011;35723;51.194;5.112;2022-09-09T04:21:02;17.85;;;3.40;;
49828;SDS011;35723;51.194;5.112;2022-09-09T04:23:29;17.55;;;3.50;;
49828;SDS011;35723;51.194;5.112;2022-09-09T04:25:55;16.83;;;3.60;;
49828;SDS011;35723;51.194;5.112;2022-09-09T04:28:23;21.60;;;3.72;;
49828;SDS011;35723;51.194;5.112;2022-09-09T04:30:50;14.25;;;3.40;;
49828;SDS011;35723;51.194;5.112;2022-09-09T04:33:17;17.45;;;3.50;;
49828;SDS011;35723;51.194;5.112;2022-09-09T04:35:44;14.77;;;3.58;;
49828;SDS011;35723;51.194;5.112;2022-09-09T04:38:11;19.30;;;3.55;;
49828;SDS011;35723;51.194;5.112;2022-09-09T04:40:37;16.48;;;3.15;;
49828;SDS011;35723;51.194;5.112;2022-09-09T04:43:07;23.92;;;4.10;;
49828;SDS011;35723;51.194;5.112;2022-09-09T04:45:33;13.50;;;4.10;;
49828;SDS011;35723;51.194;5.112;2022-09-09T04:47:59;18.08;;;3.50;;
49828;SDS011;35723;51.194;5.112;2022-09-09T04:50:25;22.67;;;4.03;;
49828;SDS011;35723;51.194;5.112;2022-09-09T04:52:51;14.65;;;3.40;;
49828;SDS011;35723;51.194;5.112;2022-09-09T04:55:16;17.67;;;4.15;;
49828;SDS011;35723;51.194;5.112;2022-09-09T04:57:42;17.75;;;3.65;;
49828;SDS011;35723;51.194;5.112;2022-09-09T05:00:08;20.67;;;3.40;;
49828;SDS011;35723;51.194;5.112;2022-09-09T05:02:38;18.95;;;3.58;;
49828;SDS011;35723;51.194;5.112;2022-09-09T05:05:04;15.50;;;3.33;;
49828;SDS011;35723;51.194;5.112;2022-09-09T05:07:31;16.70;;;3.30;;
49828;SDS011;35723;51.194;5.112;2022-09-09T05:09:57;18.23;;;3.40;;
49828;SDS011;35723;51.194;5.112;2022-09-09T05:12:23;15.35;;;3.58;;
49828;SDS011;35723;51.194;5.112;2022-09-09T05:14:50;15.68;;;3.72;;
49828;SDS011;35723;51.194;5.112;2022-09-09T05:17:17;18.58;;;4.05;;
49828;SDS011;35723;51.194;5.112;2022-09-09T05:19:42;14.82;;;3.10;;
49828;SDS011;35723;51.194;5.112;2022-09-09T05:22:09;17.30;;;3.20;;
49828;SDS011;35723;51.194;5.112;2022-09-09T05:24:35;19.77;;;3.38;;
49828;SDS011;35723;51.194;5.112;2022-09-09T05:27:01;17.98;;;3.60;;
49828;SDS011;35723;51.194;5.112;2022-09-09T05:29:27;17.30;;;3.20;;
49828;SDS011;35723;51.194;5.112;2022-09-09T05:31:53;15.98;;;3.30;;
49828;SDS011;35723;51.194;5.112;2022-09-09T05:34:19;21.42;;;3.45;;
49828;SDS011;35723;51.194;5.112;2022-09-09T05:36:46;13.45;;;3.28;;
49828;SDS011;35723;51.194;5.112;2022-09-09T05:39:12;21.30;;;4.05;;
49828;SDS011;35723;51.194;5.112;2022-09-09T05:41:38;16.27;;;3.42;;
49828;SDS011;35723;51.194;5.112;2022-09-09T05:44:03;19.17;;;3.40;;
49828;SDS011;35723;51.194;5.112;2022-09-09T05:46:30;18.63;;;4.03;;
49828;SDS011;35723;51.194;5.112;2022-09-09T05:48:55;18.23;;;3.38;;
49828;SDS011;35723;51.194;5.112;2022-09-09T05:51:22;12.60;;;3.17;;
49828;SDS011;35723;51.194;5.112;2022-09-09T05:53:49;14.90;;;3.17;;
49828;SDS011;35723;51.194;5.112;2022-09-09T05:56:20;18.92;;;3.47;;
49828;SDS011;35723;51.194;5.112;2022-09-09T05:58:48;14.77;;;3.40;;
49828;SDS011;35723;51.194;5.112;2022-09-09T06:01:24;18.83;;;3.80;;
49828;SDS011;35723;51.194;5.112;2022-09-09T06:03:51;21.67;;;4.05;;
49828;SDS011;35723;51.194;5.112;2022-09-09T06:06:19;20.05;;;4.05;;
49828;SDS011;35723;51.194;5.112;2022-09-09T06:08:46;19.48;;;3.92;;
49828;SDS011;35723;51.194;5.112;2022-09-09T06:11:17;20.65;;;3.75;;
49828;SDS011;35723;51.194;5.112;2022-09-09T06:13:44;18.40;;;3.50;;
49828;SDS011;35723;51.194;5.112;2022-09-09T06:16:11;20.30;;;3.83;;
49828;SDS011;35723;51.194;5.112;2022-09-09T06:18:38;17.60;;;3.80;;
49828;SDS011;35723;51.194;5.112;2022-09-09T06:21:05;18.95;;;4.40;;
49828;SDS011;35723;51.194;5.112;2022-09-09T06:23:38;18.42;;;3.83;;
49828;SDS011;35723;51.194;5.112;2022-09-09T06:28:37;17.88;;;3.97;;
49828;SDS011;35723;51.194;5.112;2022-09-09T06:31:04;17.85;;;3.75;;
49828;SDS011;35723;51.194;5.112;2022-09-09T06:33:35;22.42;;;4.30;;
49828;SDS011;35723;51.194;5.112;2022-09-09T06:36:06;17.83;;;4.38;;
49828;SDS011;35723;51.194;5.112;2022-09-09T06:38:36;22.52;;;4.25;;
49828;SDS011;35723;51.194;5.112;2022-09-09T06:41:02;22.23;;;4.18;;
49828;SDS011;35723;51.194;5.112;2022-09-09T06:43:28;16.02;;;3.83;;
49828;SDS011;35723;51.194;5.112;2022-09-09T06:48:24;16.58;;;3.90;;
49828;SDS011;35723;51.194;5.112;2022-09-09T06:51:03;21.65;;;3.80;;
49828;SDS011;35723;51.194;5.112;2022-09-09T06:53:29;16.85;;;3.70;;
49828;SDS011;35723;51.194;5.112;2022-09-09T06:55:55;20.73;;;3.75;;
49828;SDS011;35723;51.194;5.112;2022-09-09T06:58:21;22.33;;;3.60;;
49828;SDS011;35723;51.194;5.112;2022-09-09T07:00:49;21.88;;;3.55;;
49828;SDS011;35723;51.194;5.112;2022-09-09T07:03:15;21.95;;;3.58;;
49828;SDS011;35723;51.194;5.112;2022-09-09T07:05:40;20.63;;;3.60;;
49828;SDS011;35723;51.194;5.112;2022-09-09T07:08:06;16.65;;;3.35;;
49828;SDS011;35723;51.194;5.112;2022-09-09T07:10:31;21.90;;;3.40;;
49828;SDS011;35723;51.194;5.112;2022-09-09T07:12:59;20.35;;;3.63;;
49828;SDS011;35723;51.194;5.112;2022-09-09T07:15:25;17.58;;;3.28;;
49828;SDS011;35723;51.194;5.112;2022-09-09T07:17:51;17.27;;;3.15;;
49828;SDS011;35723;51.194;5.112;2022-09-09T07:20:18;17.38;;;3.22;;
49828;SDS011;35723;51.194;5.112;2022-09-09T07:22:44;16.05;;;2.90;;
49828;SDS011;35723;51.194;5.112;2022-09-09T07:25:10;19.98;;;3.50;;
49828;SDS011;35723;51.194;5.112;2022-09-09T07:27:36;20.58;;;3.30;;
49828;SDS011;35723;51.194;5.112;2022-09-09T07:30:02;14.85;;;2.80;;
49828;SDS011;35723;51.194;5.112;2022-09-09T07:32:28;17.40;;;3.03;;
49828;SDS011;35723;51.194;5.112;2022-09-09T07:34:55;15.80;;;2.97;;
49828;SDS011;35723;51.194;5.112;2022-09-09T07:37:23;17.45;;;2.90;;
49828;SDS011;35723;51.194;5.112;2022-09-09T07:39:49;21.63;;;3.33;;
49828;SDS011;35723;51.194;5.112;2022-09-09T07:42:15;14.63;;;2.88;;
49828;SDS011;35723;51.194;5.112;2022-09-09T07:44:41;17.02;;;2.80;;
49828;SDS011;35723;51.194;5.112;2022-09-09T07:47:07;14.40;;;2.83;;
49828;SDS011;35723;51.194;5.112;2022-09-09T07:49:32;15.68;;;2.72;;
49828;SDS011;35723;51.194;5.112;2022-09-09T07:51:58;16.10;;;2.83;;
49828;SDS011;35723;51.194;5.112;2022-09-09T07:54:25;15.18;;;2.80;;
49828;SDS011;35723;51.194;5.112;2022-09-09T07:56:51;12.93;;;2.58;;
49828;SDS011;35723;51.194;5.112;2022-09-09T07:59:17;15.35;;;2.78;;
49828;SDS011;35723;51.194;5.112;2022-09-09T08:01:50;13.35;;;2.90;;
49828;SDS011;35723;51.194;5.112;2022-09-09T08:04:19;16.70;;;2.95;;
49828;SDS011;35723;51.194;5.112;2022-09-09T08:06:47;15.00;;;2.90;;
49828;SDS011;35723;51.194;5.112;2022-09-09T08:09:23;23.80;;;3.38;;
49828;SDS011;35723;51.194;5.112;2022-09-09T08:11:52;14.75;;;2.90;;
49828;SDS011;35723;51.194;5.112;2022-09-09T08:14:17;17.88;;;3.20;;
49828;SDS011;35723;51.194;5.112;2022-09-09T08:16:45;19.80;;;3.85;;
49828;SDS011;35723;51.194;5.112;2022-09-09T08:19:12;19.40;;;3.15;;
49828;SDS011;35723;51.194;5.112;2022-09-09T08:21:40;15.68;;;3.25;;
49828;SDS011;35723;51.194;5.112;2022-09-09T08:24:07;15.50;;;2.80;;
49828;SDS011;35723;51.194;5.112;2022-09-09T08:26:39;12.35;;;2.50;;
49828;SDS011;35723;51.194;5.112;2022-09-09T08:29:07;17.17;;;2.72;;
49828;SDS011;35723;51.194;5.112;2022-09-09T08:31:34;17.75;;;2.85;;
49828;SDS011;35723;51.194;5.112;2022-09-09T08:34:04;20.58;;;3.28;;
49828;SDS011;35723;51.194;5.112;2022-09-09T08:36:32;17.20;;;3.40;;
49828;SDS011;35723;51.194;5.112;2022-09-09T08:39:00;14.80;;;2.80;;
49828;SDS011;35723;51.194;5.112;2022-09-09T08:47:01;22.30;;;3.92;;
49828;SDS011;35723;51.194;5.112;2022-09-09T08:49:55;17.02;;;3.20;;
49828;SDS011;35723;51.194;5.112;2022-09-09T08:52:28;16.65;;;3.28;;
49828;SDS011;35723;51.194;5.112;2022-09-09T08:54:56;14.60;;;3.30;;
49828;SDS011;35723;51.194;5.112;2022-09-09T08:57:30;17.73;;;3.28;;
49828;SDS011;35723;51.194;5.112;2022-09-09T08:59:57;17.52;;;2.97;;
49828;SDS011;35723;51.194;5.112;2022-09-09T09:10:03;14.00;;;2.70;;
49828;SDS011;35723;51.194;5.112;2022-09-09T09:12:51;16.50;;;3.00;;
49828;SDS011;35723;51.194;5.112;2022-09-09T09:15:19;17.00;;;3.33;;
49828;SDS011;35723;51.194;5.112;2022-09-09T09:17:48;12.10;;;2.70;;
49828;SDS011;35723;51.194;5.112;2022-09-09T09:20:15;13.52;;;2.72;;
49828;SDS011;35723;51.194;5.112;2022-09-09T09:25:19;15.48;;;2.97;;
49828;SDS011;35723;51.194;5.112;2022-09-09T09:30:44;14.73;;;2.70;;
49828;SDS011;35723;51.194;5.112;2022-09-09T09:36:18;14.98;;;2.50;;
49828;SDS011;35723;51.194;5.112;2022-09-09T09:38:53;13.88;;;2.60;;
49828;SDS011;35723;51.194;5.112;2022-09-09T09:41:59;10.00;;;2.90;;
49828;SDS011;35723;51.194;5.112;2022-09-09T09:44:29;17.03;;;3.20;;
49828;SDS011;35723;51.194;5.112;2022-09-09T09:47:16;15.45;;;3.20;;
49828;SDS011;35723;51.194;5.112;2022-09-09T09:49:59;18.20;;;2.80;;
49828;SDS011;35723;51.194;5.112;2022-09-09T09:52:30;21.67;;;3.45;;
49828;SDS011;35723;51.194;5.112;2022-09-09T09:54:59;15.85;;;3.17;;
49828;SDS011;35723;51.194;5.112;2022-09-09T09:57:29;16.58;;;3.33;;
49828;SDS011;35723;51.194;5.112;2022-09-09T10:00:04;15.40;;;3.67;;
49828;SDS011;35723;51.194;5.112;2022-09-09T10:02:43;16.38;;;4.05;;
49828;SDS011;35723;51.194;5.112;2022-09-09T10:07:40;20.02;;;4.35;;
49828;SDS011;35723;51.194;5.112;2022-09-09T10:10:09;18.45;;;3.90;;
49828;SDS011;35723;51.194;5.112;2022-09-09T10:20:59;17.27;;;4.05;;
49828;SDS011;35723;51.194;5.112;2022-09-09T10:26:46;13.68;;;3.50;;
49828;SDS011;35723;51.194;5.112;2022-09-09T10:37:04;19.85;;;4.25;;
49828;SDS011;35723;51.194;5.112;2022-09-09T10:39:55;19.52;;;3.75;;
49828;SDS011;35723;51.194;5.112;2022-09-09T10:42:46;14.35;;;3.95;;
49828;SDS011;35723;51.194;5.112;2022-09-09T10:45:20;17.33;;;3.78;;
49828;SDS011;35723;51.194;5.112;2022-09-09T10:51:02;13.18;;;3.75;;
49828;SDS011;35723;51.194;5.112;2022-09-09T10:57:07;16.50;;;4.45;;
49828;SDS011;35723;51.194;5.112;2022-09-09T10:59:40;17.17;;;4.28;;
49828;SDS011;35723;51.194;5.112;2022-09-09T11:04:53;15.77;;;4.40;;
49828;SDS011;35723;51.194;5.112;2022-09-09T11:13:11;17.38;;;3.92;;
49828;SDS011;35723;51.194;5.112;2022-09-09T11:15:50;14.50;;;4.00;;
49828;SDS011;35723;51.194;5.112;2022-09-09T11:20:48;12.38;;;3.60;;
49828;SDS011;35723;51.194;5.112;2022-09-09T11:23:23;18.92;;;4.18;;
49828;SDS011;35723;51.194;5.112;2022-09-09T11:25:58;11.80;;;3.75;;
49828;SDS011;35723;51.194;5.112;2022-09-09T11:44:44;19.45;;;3.70;;
49828;SDS011;35723;51.194;5.112;2022-09-09T11:47:29;18.65;;;3.78;;
49828;SDS011;35723;51.194;5.112;2022-09-09T11:55:26;15.30;;;3.42;;
49828;SDS011;35723;51.194;5.112;2022-09-09T12:00:37;16.95;;;3.60;;
49828;SDS011;35723;51.194;5.112;2022-09-09T12:03:08;15.63;;;3.72;;
49828;SDS011;35723;51.194;5.112;2022-09-09T12:05:57;13.13;;;2.88;;
49828;SDS011;35723;51.194;5.112;2022-09-09T12:08:34;14.77;;;3.17;;
49828;SDS011;35723;51.194;5.112;2022-09-09T12:11:01;11.40;;;2.88;;
49828;SDS011;35723;51.194;5.112;2022-09-09T12:13:30;12.35;;;3.03;;
49828;SDS011;35723;51.194;5.112;2022-09-09T12:15:57;12.40;;;2.90;;
49828;SDS011;35723;51.194;5.112;2022-09-09T12:18:25;10.48;;;2.60;;
49828;SDS011;35723;51.194;5.112;2022-09-09T12:26:27;14.35;;;2.40;;
49828;SDS011;35723;51.194;5.112;2022-09-09T12:31:48;12.02;;;2.08;;
49828;SDS011;35723;51.194;5.112;2022-09-09T12:37:21;13.73;;;2.40;;
49828;SDS011;35723;51.194;5.112;2022-09-09T12:39:57;15.30;;;2.45;;
49828;SDS011;35723;51.194;5.112;2022-09-09T12:42:25;10.65;;;2.28;;
49828;SDS011;35723;51.194;5.112;2022-09-09T12:44:55;8.10;;;1.92;;
49828;SDS011;35723;51.194;5.112;2022-09-09T12:47:22;8.02;;;1.98;;
49828;SDS011;35723;51.194;5.112;2022-09-09T12:50:30;11.77;;;1.98;;
49828;SDS011;35723;51.194;5.112;2022-09-09T12:52:58;9.05;;;2.10;;
49828;SDS011;35723;51.194;5.112;2022-09-09T12:55:28;10.27;;;2.20;;
49828;SDS011;35723;51.194;5.112;2022-09-09T12:57:58;9.60;;;1.90;;
49828;SDS011;35723;51.194;5.112;2022-09-09T13:00:26;4.80;;;1.45;;
49828;SDS011;35723;51.194;5.112;2022-09-09T13:02:55;10.35;;;2.00;;
49828;SDS011;35723;51.194;5.112;2022-09-09T13:05:28;6.45;;;1.50;;
49828;SDS011;35723;51.194;5.112;2022-09-09T13:08:10;6.38;;;1.77;;
49828;SDS011;35723;51.194;5.112;2022-09-09T13:10:41;7.57;;;1.50;;
49828;SDS011;35723;51.194;5.112;2022-09-09T13:13:23;7.88;;;1.73;;
49828;SDS011;35723;51.194;5.112;2022-09-09T13:15:58;8.40;;;1.77;;
49828;SDS011;35723;51.194;5.112;2022-09-09T13:18:28;9.10;;;1.98;;
49828;SDS011;35723;51.194;5.112;2022-09-09T13:20:56;7.93;;;1.80;;
49828;SDS011;35723;51.194;5.112;2022-09-09T13:23:35;7.75;;;2.03;;
49828;SDS011;35723;51.194;5.112;2022-09-09T13:28:48;9.38;;;2.08;;
49828;SDS011;35723;51.194;5.112;2022-09-09T13:31:30;12.50;;;2.42;;
49828;SDS011;35723;51.194;5.112;2022-09-09T13:33:58;6.07;;;1.73;;
49828;SDS011;35723;51.194;5.112;2022-09-09T13:36:30;7.80;;;1.63;;
49828;SDS011;35723;51.194;5.112;2022-09-09T13:38:58;10.05;;;1.92;;
49828;SDS011;35723;51.194;5.112;2022-09-09T13:41:25;10.25;;;2.10;;
49828;SDS011;35723;51.194;5.112;2022-09-09T13:43:58;8.80;;;1.85;;
49828;SDS011;35723;51.194;5.112;2022-09-09T13:46:26;9.20;;;1.90;;
49828;SDS011;35723;51.194;5.112;2022-09-09T13:49:38;6.90;;;1.58;;
49828;SDS011;35723;51.194;5.112;2022-09-09T13:51:49;7.40;;;1.77;;
49828;SDS011;35723;51.194;5.112;2022-09-09T13:54:19;7.50;;;1.80;;
49828;SDS011;35723;51.194;5.112;2022-09-09T13:56:45;9.07;;;1.80;;
49828;SDS011;35723;51.194;5.112;2022-09-09T13:59:18;6.63;;;1.70;;
49828;SDS011;35723;51.194;5.112;2022-09-09T14:01:49;6.30;;;1.50;;
49828;SDS011;35723;51.194;5.112;2022-09-09T14:04:17;5.47;;;1.65;;
49828;SDS011;35723;51.194;5.112;2022-09-09T14:06:43;11.52;;;2.00;;
49828;SDS011;35723;51.194;5.112;2022-09-09T14:09:12;8.68;;;1.80;;
49828;SDS011;35723;51.194;5.112;2022-09-09T14:11:40;12.13;;;1.90;;
49828;SDS011;35723;51.194;5.112;2022-09-09T14:14:06;8.45;;;1.90;;
49828;SDS011;35723;51.194;5.112;2022-09-09T14:16:31;7.35;;;1.70;;
49828;SDS011;35723;51.194;5.112;2022-09-09T14:18:57;6.38;;;1.80;;
49828;SDS011;35723;51.194;5.112;2022-09-09T14:21:24;7.20;;;1.50;;
49828;SDS011;35723;51.194;5.112;2022-09-09T14:23:50;7.10;;;1.75;;
49828;SDS011;35723;51.194;5.112;2022-09-09T14:26:17;9.55;;;1.60;;
49828;SDS011;35723;51.194;5.112;2022-09-09T14:28:45;7.28;;;1.67;;
49828;SDS011;35723;51.194;5.112;2022-09-09T14:31:11;4.75;;;1.35;;
49828;SDS011;35723;51.194;5.112;2022-09-09T14:33:38;6.63;;;1.70;;
49828;SDS011;35723;51.194;5.112;2022-09-09T14:36:04;8.75;;;1.63;;
49828;SDS011;35723;51.194;5.112;2022-09-09T14:38:34;6.30;;;1.40;;
49828;SDS011;35723;51.194;5.112;2022-09-09T14:41:11;5.03;;;1.70;;
49828;SDS011;35723;51.194;5.112;2022-09-09T14:43:41;6.43;;;1.77;;
49828;SDS011;35723;51.194;5.112;2022-09-09T14:46:09;5.95;;;1.60;;
49828;SDS011;35723;51.194;5.112;2022-09-09T14:48:42;6.80;;;1.70;;
49828;SDS011;35723;51.194;5.112;2022-09-09T14:51:09;7.60;;;1.55;;
49828;SDS011;35723;51.194;5.112;2022-09-09T14:53:37;8.57;;;1.90;;
49828;SDS011;35723;51.194;5.112;2022-09-09T14:58:57;7.55;;;1.70;;
49828;SDS011;35723;51.194;5.112;2022-09-09T15:01:25;8.07;;;1.55;;
49828;SDS011;35723;51.194;5.112;2022-09-09T15:03:53;6.07;;;1.60;;
49828;SDS011;35723;51.194;5.112;2022-09-09T15:06:23;9.77;;;1.73;;
49828;SDS011;35723;51.194;5.112;2022-09-09T15:08:50;9.20;;;1.80;;
49828;SDS011;35723;51.194;5.112;2022-09-09T15:11:17;8.23;;;1.73;;
49828;SDS011;35723;51.194;5.112;2022-09-09T15:13:43;11.73;;;2.03;;
49828;SDS011;35723;51.194;5.112;2022-09-09T15:16:10;11.20;;;1.77;;
49828;SDS011;35723;51.194;5.112;2022-09-09T15:18:40;6.85;;;1.83;;
49828;SDS011;35723;51.194;5.112;2022-09-09T15:21:11;7.38;;;2.00;;
49828;SDS011;35723;51.194;5.112;2022-09-09T15:23:38;6.80;;;1.60;;
49828;SDS011;35723;51.194;5.112;2022-09-09T15:26:07;8.05;;;1.60;;
49828;SDS011;35723;51.194;5.112;2022-09-09T15:28:37;7.88;;;1.88;;
49828;SDS011;35723;51.194;5.112;2022-09-09T15:31:05;8.35;;;1.77;;
49828;SDS011;35723;51.194;5.112;2022-09-09T15:33:52;6.45;;;1.70;;
49828;SDS011;35723;51.194;5.112;2022-09-09T15:36:25;5.55;;;1.80;;
49828;SDS011;35723;51.194;5.112;2022-09-09T15:39:15;8.52;;;1.83;;
49828;SDS011;35723;51.194;5.112;2022-09-09T15:41:44;8.10;;;1.83;;
49828;SDS011;35723;51.194;5.112;2022-09-09T15:44:11;6.22;;;1.85;;
49828;SDS011;35723;51.194;5.112;2022-09-09T15:46:40;9.60;;;1.70;;
49828;SDS011;35723;51.194;5.112;2022-09-09T15:51:39;5.85;;;1.67;;
49828;SDS011;35723;51.194;5.112;2022-09-09T15:54:09;6.28;;;1.75;;
49828;SDS011;35723;51.194;5.112;2022-09-09T15:56:40;6.95;;;2.20;;
49828;SDS011;35723;51.194;5.112;2022-09-09T15:59:09;6.80;;;1.75;;
49828;SDS011;35723;51.194;5.112;2022-09-09T16:01:35;7.70;;;1.83;;
49828;SDS011;35723;51.194;5.112;2022-09-09T16:04:01;9.23;;;1.90;;
49828;SDS011;35723;51.194;5.112;2022-09-09T16:06:27;9.98;;;2.05;;
49828;SDS011;35723;51.194;5.112;2022-09-09T16:08:54;7.07;;;1.65;;
49828;SDS011;35723;51.194;5.112;2022-09-09T16:11:25;8.05;;;2.25;;
49828;SDS011;35723;51.194;5.112;2022-09-09T16:13:53;11.02;;;2.58;;
49828;SDS011;35723;51.194;5.112;2022-09-09T16:16:21;6.60;;;2.42;;
49828;SDS011;35723;51.194;5.112;2022-09-09T16:18:53;9.10;;;2.33;;
49828;SDS011;35723;51.194;5.112;2022-09-09T16:21:23;9.57;;;2.58;;
49828;SDS011;35723;51.194;5.112;2022-09-09T16:23:51;8.48;;;2.40;;
49828;SDS011;35723;51.194;5.112;2022-09-09T16:26:20;7.80;;;2.45;;
49828;SDS011;35723;51.194;5.112;2022-09-09T16:28:47;6.95;;;2.38;;
49828;SDS011;35723;51.194;5.112;2022-09-09T16:31:14;7.57;;;2.03;;
49828;SDS011;35723;51.194;5.112;2022-09-09T16:33:44;6.05;;;2.00;;
49828;SDS011;35723;51.194;5.112;2022-09-09T16:36:12;5.07;;;1.83;;
49828;SDS011;35723;51.194;5.112;2022-09-09T16:38:40;4.65;;;1.73;;
49828;SDS011;35723;51.194;5.112;2022-09-09T16:41:08;5.18;;;1.60;;
49828;SDS011;35723;51.194;5.112;2022-09-09T16:43:35;6.90;;;1.77;;
49828;SDS011;35723;51.194;5.112;2022-09-09T16:46:12;6.65;;;1.50;;
49828;SDS011;35723;51.194;5.112;2022-09-09T16:48:40;7.65;;;1.77;;
49828;SDS011;35723;51.194;5.112;2022-09-09T16:51:09;7.00;;;1.75;;
49828;SDS011;35723;51.194;5.112;2022-09-09T16:53:39;8.70;;;1.95;;
49828;SDS011;35723;51.194;5.112;2022-09-09T16:56:08;4.47;;;1.50;;
49828;SDS011;35723;51.194;5.112;2022-09-09T16:58:35;6.13;;;1.70;;
49828;SDS011;35723;51.194;5.112;2022-09-09T17:01:02;4.85;;;1.90;;
49828;SDS011;35723;51.194;5.112;2022-09-09T17:03:28;9.20;;;2.20;;
49828;SDS011;35723;51.194;5.112;2022-09-09T17:05:54;6.43;;;2.00;;
49828;SDS011;35723;51.194;5.112;2022-09-09T17:08:22;5.97;;;2.00;;
49828;SDS011;35723;51.194;5.112;2022-09-09T17:10:48;9.25;;;2.15;;
49828;SDS011;35723;51.194;5.112;2022-09-09T17:13:15;5.63;;;1.73;;
49828;SDS011;35723;51.194;5.112;2022-09-09T17:15:43;7.63;;;1.90;;
49828;SDS011;35723;51.194;5.112;2022-09-09T17:18:09;7.55;;;1.90;;
49828;SDS011;35723;51.194;5.112;2022-09-09T17:20:37;10.75;;;2.08;;
49828;SDS011;35723;51.194;5.112;2022-09-09T17:23:04;8.88;;;1.83;;
49828;SDS011;35723;51.194;5.112;2022-09-09T17:25:34;6.93;;;1.90;;
49828;SDS011;35723;51.194;5.112;2022-09-09T17:28:00;6.50;;;2.13;;
49828;SDS011;35723;51.194;5.112;2022-09-09T17:30:28;5.60;;;1.98;;
49828;SDS011;35723;51.194;5.112;2022-09-09T17:33:03;7.75;;;2.28;;
49828;SDS011;35723;51.194;5.112;2022-09-09T17:35:29;5.78;;;2.30;;
49828;SDS011;35723;51.194;5.112;2022-09-09T17:37:55;9.13;;;2.45;;
49828;SDS011;35723;51.194;5.112;2022-09-09T17:40:21;7.72;;;2.40;;
49828;SDS011;35723;51.194;5.112;2022-09-09T17:42:47;6.50;;;2.05;;
49828;SDS011;35723;51.194;5.112;2022-09-09T17:45:13;8.65;;;2.10;;
49828;SDS011;35723;51.194;5.112;2022-09-09T17:47:39;5.47;;;1.98;;